Folsom, New Mexico
Current Conditions -  °F | °C
As of 6:54 PM on Sunday 21 Dec 2014 (Local Time) from KTAD Reporting Station
Clear Clear  
Wind Chill: 44°   Ceiling: Unl
Heat Index: 48°   Visibility: 10mi
Dew Point: 25°   Wind: 8mph
Humidity: 41%   Direction: 300°WNW
Pressure: 29.62"   Gusts: NA
Location:  36.85°N, 103.92°W
Report Text: KTAD 220154Z AUTO 30007KT 10SM CLR 09/M04 A2962 RMK AO2 SLP012 T00891039
Loading
Personal Weather Stations






























Interactive Weather Map New forecast layout! Learn more

10-Day Weather Forecast

Advertisements
Track Severe Weather on mobile